Time;durP1;ratioP1;P1;durP2;ratioP2;P2;SDS_P1;SDS_P2;PMS_P1;PMS_P2;Temp;Humidity;BMP_temperature;BMP_pressure;BME280_temperature;BME280_humidity;BME280_pressure;Samples;Min_cycle;Max_cycle;Signal;HPM_P1;HPM_P2
2021/03/04 00:02:14;;;;;;;;;;;;;;;19.38;36.67;101988.31;5137882;27;861;-45
2021/03/04 00:04:39;;;;;;;;;;;;;;;19.60;36.61;101981.84;5137412;27;850;-45
2021/03/04 00:07:05;;;;;;;;;;;;;;;20.44;34.91;101977.41;5137872;27;843;-46
2021/03/04 00:09:30;;;;;;;;;;;;;;;20.24;35.06;101964.31;5138148;27;957;-47
2021/03/04 00:11:56;;;;;;;;;;;;;;;20.12;35.35;101964.56;5137131;27;862;-46
2021/03/04 00:14:21;;;;;;;;;;;;;;;19.73;35.97;101953.81;5137848;27;858;-45
2021/03/04 00:16:46;;;;;;;;;;;;;;;19.32;37.08;101968.16;5133838;27;1974;-45
2021/03/04 00:19:12;;;;;;;;;;;;;;;20.23;35.19;101959.91;5115761;28;707;-47
2021/03/04 00:21:37;;;;;;;;;;;;;;;20.61;34.27;101948.72;5117042;28;763;-47
2021/03/04 00:24:03;;;;;;;;;;;;;;;20.14;35.45;101953.22;5118500;28;925;-47
2021/03/04 00:26:28;;;;;;;;;;;;;;;19.98;35.82;101939.34;5137726;28;823;-45
2021/03/04 00:28:54;;;;;;;;;;;;;;;19.28;36.84;101950.47;5137612;28;795;-54
2021/03/04 00:31:19;;;;;;;;;;;;;;;19.91;35.73;101940.69;5137451;27;762;-45
2021/03/04 00:33:45;;;;;;;;;;;;;;;20.51;34.61;101936.53;5137149;28;751;-47
2021/03/04 00:36:10;;;;;;;;;;;;;;;20.14;35.49;101929.19;5137796;28;770;-46
2021/03/04 00:38:36;;;;;;;;;;;;;;;20.06;35.64;101934.41;5137411;28;1905;-46
2021/03/04 00:41:01;;;;;;;;;;;;;;;19.48;36.59;101922.19;5136804;27;1020;-47
2021/03/04 00:43:26;;;;;;;;;;;;;;;19.67;36.24;101914.31;5137441;28;771;-48
2021/03/04 00:45:52;;;;;;;;;;;;;;;20.51;34.60;101911.66;5137229;28;777;-46
2021/03/04 00:48:17;;;;;;;;;;;;;;;20.23;35.26;101909.34;5137283;28;771;-45
2021/03/04 00:50:43;;;;;;;;;;;;;;;20.11;35.31;101907.66;5137371;28;1030;-46
2021/03/04 00:53:08;;;;;;;;;;;;;;;19.70;36.28;101907.44;5137118;28;754;-47
2021/03/04 00:55:34;;;;;;;;;;;;;;;19.47;36.64;101903.16;5136896;28;968;-53
2021/03/04 00:57:59;;;;;;;;;;;;;;;20.42;34.94;101893.13;5137331;27;1976;-46
2021/03/04 01:00:25;;;;;;;;;;;;;;;20.30;34.86;101890.59;5137032;28;759;-46
2021/03/04 01:02:50;;;;;;;;;;;;;;;20.22;35.17;101883.69;5136925;28;779;-46
2021/03/04 01:05:15;;;;;;;;;;;;;;;19.90;35.83;101886.59;5137327;27;779;-46
2021/03/04 01:07:41;;;;;;;;;;;;;;;19.01;37.62;101887.09;5137083;28;815;-45
2021/03/04 01:10:06;;;;;;;;;;;;;;;19.94;35.78;101874.75;5136514;27;960;-45
2021/03/04 01:12:32;;;;;;;;;;;;;;;20.50;34.55;101885.13;5137073;27;819;-45
2021/03/04 01:14:57;;;;;;;;;;;;;;;20.18;35.04;101883.38;5137278;28;741;-46
2021/03/04 01:17:23;;;;;;;;;;;;;;;20.10;35.25;101878.38;5128137;27;1909;-45
2021/03/04 01:19:48;;;;;;;;;;;;;;;19.29;37.02;101882.34;5116452;28;790;-45
2021/03/04 01:22:14;;;;;;;;;;;;;;;19.81;36.10;101870.53;5116457;28;755;-45
2021/03/04 01:24:39;;;;;;;;;;;;;;;20.55;34.74;101877.94;5124398;28;894;-45
2021/03/04 01:27:05;;;;;;;;;;;;;;;20.20;35.01;101874.00;5136597;28;751;-45
2021/03/04 01:29:30;;;;;;;;;;;;;;;20.18;35.08;101880.63;5137781;27;782;-45
2021/03/04 01:31:55;;;;;;;;;;;;;;;19.71;36.07;101873.22;5140960;27;810;-55
2021/03/04 01:34:21;;;;;;;;;;;;;;;19.08;37.49;101868.44;5140389;27;807;-46
2021/03/04 01:36:46;;;;;;;;;;;;;;;20.07;35.44;101865.13;5140544;27;1901;-45
2021/03/04 01:39:12;;;;;;;;;;;;;;;20.61;34.46;101865.81;5140403;27;1019;-46
2021/03/04 01:41:37;;;;;;;;;;;;;;;20.17;35.15;101853.28;5140114;27;827;-59
2021/03/04 01:44:03;;;;;;;;;;;;;;;20.01;35.41;101857.94;5139191;27;951;-45
2021/03/04 01:46:28;;;;;;;;;;;;;;;19.40;36.61;101859.25;5140578;27;786;-45
2021/03/04 01:48:54;;;;;;;;;;;;;;;19.87;35.89;101852.06;5139770;27;1040;-44
2021/03/04 01:51:20;;;;;;;;;;;;;;;20.55;34.42;101840.06;5140406;27;818;-45
2021/03/04 01:53:45;;;;;;;;;;;;;;;20.12;35.37;101837.53;5139303;27;550;-45
2021/03/04 01:56:11;;;;;;;;;;;;;;;20.07;35.32;101840.25;5139892;27;961;-46
2021/03/04 01:58:36;;;;;;;;;;;;;;;19.53;36.63;101840.56;5139080;27;1913;-45
2021/03/04 02:01:01;;;;;;;;;;;;;;;19.68;36.19;101826.84;5140152;27;751;-45
2021/03/04 02:03:27;;;;;;;;;;;;;;;20.56;34.54;101832.63;5139709;27;735;-49
2021/03/04 02:05:52;;;;;;;;;;;;;;;20.22;35.33;101833.16;5138638;27;893;-45
2021/03/04 02:08:24;;;;;;;;;;;;;;;20.14;35.21;101826.22;5138749;27;815;-44
2021/03/04 02:10:55;;;;;;;;;;;;;;;19.62;36.15;101828.75;5139641;27;1012;-45
2021/03/04 02:13:20;;;;;;;;;;;;;;;19.27;37.14;101826.63;5138764;27;767;-45
2021/03/04 02:15:49;;;;;;;;;;;;;;;20.21;35.16;101817.66;5139757;27;790;-63
2021/03/04 02:18:14;;;;;;;;;;;;;;;20.51;34.34;101820.47;5123317;27;1980;-46
2021/03/04 02:20:53;;;;;;;;;;;;;;;20.16;35.14;101816.56;5118152;28;758;-43
2021/03/04 02:23:37;;;;;;;;;;;;;;;19.89;35.54;101821.44;5119123;28;819;-44
2021/03/04 02:26:15;;;;;;;;;;;;;;;19.23;37.18;101825.50;5137230;27;953;-44
2021/03/04 02:28:41;;;;;;;;;;;;;;;20.29;34.90;101811.63;5139526;27;810;-45
2021/03/04 02:31:06;;;;;;;;;;;;;;;20.45;34.56;101816.03;5138988;27;777;-53
2021/03/04 02:33:32;;;;;;;;;;;;;;;20.28;34.90;101808.00;5137751;27;912;-44
2021/03/04 02:36:01;;;;;;;;;;;;;;;19.91;35.65;101813.72;5138124;27;779;-46
2021/03/04 02:38:27;;;;;;;;;;;;;;;19.27;36.82;101810.09;5138438;27;1909;-62
2021/03/04 02:40:52;;;;;;;;;;;;;;;19.77;36.08;101807.84;5138417;27;1067;-46
2021/03/04 02:43:19;;;;;;;;;;;;;;;20.57;34.31;101799.19;5137546;27;811;-47
2021/03/04 02:45:44;;;;;;;;;;;;;;;20.14;35.31;101804.94;5139448;27;827;-48
2021/03/04 02:48:10;;;;;;;;;;;;;;;20.14;35.00;101802.19;5137697;27;1105;-48
2021/03/04 02:50:36;;;;;;;;;;;;;;;19.38;36.50;101805.47;5139226;27;1211;-46
2021/03/04 02:53:01;;;;;;;;;;;;;;;19.41;36.58;101794.72;5138014;27;831;-46
2021/03/04 02:55:27;;;;;;;;;;;;;;;20.28;34.88;101791.44;5137336;27;1020;-46
2021/03/04 02:57:52;;;;;;;;;;;;;;;20.11;35.01;101790.88;5138926;27;1980;-46
2021/03/04 03:00:24;;;;;;;;;;;;;;;20.11;35.04;101791.69;5137535;27;878;-61
2021/03/04 03:02:50;;;;;;;;;;;;;;;19.72;35.86;101794.03;5138555;27;545;-45
2021/03/04 03:05:15;;;;;;;;;;;;;;;19.62;36.18;101797.56;5137307;27;911;-45
2021/03/04 03:07:41;;;;;;;;;;;;;;;20.52;34.51;101793.66;5139586;27;736;-45
2021/03/04 03:10:07;;;;;;;;;;;;;;;20.17;34.88;101787.84;5138282;27;1024;-46
2021/03/04 03:12:33;;;;;;;;;;;;;;;20.22;35.12;101791.72;5138690;27;818;-46
2021/03/04 03:14:59;;;;;;;;;;;;;;;19.75;35.82;101791.53;5138835;27;770;-45
2021/03/04 03:17:24;;;;;;;;;;;;;;;19.17;36.85;101785.19;5127427;27;1980;-45
2021/03/04 03:19:50;;;;;;;;;;;;;;;20.17;35.21;101776.81;5118087;28;826;-45
2021/03/04 03:22:15;;;;;;;;;;;;;;;20.48;34.37;101779.59;5118138;28;862;-45
2021/03/04 03:24:40;;;;;;;;;;;;;;;20.16;35.02;101772.38;5123976;27;925;-45
2021/03/04 03:27:06;;;;;;;;;;;;;;;19.89;35.39;101769.81;5138574;27;870;-45
2021/03/04 03:29:31;;;;;;;;;;;;;;;19.29;36.67;101772.03;5138955;27;787;-45
2021/03/04 03:31:57;;;;;;;;;;;;;;;20.10;35.14;101767.09;5137876;27;787;-45
2021/03/04 03:34:22;;;;;;;;;;;;;;;20.59;34.33;101765.75;5137285;27;889;-45
2021/03/04 03:36:48;;;;;;;;;;;;;;;20.15;35.14;101762.41;5137165;27;763;-45
2021/03/04 03:39:13;;;;;;;;;;;;;;;19.96;35.07;101751.09;5137429;27;1914;-45
2021/03/04 03:41:39;;;;;;;;;;;;;;;19.43;36.36;101759.44;5138349;27;747;-45
2021/03/04 03:44:07;;;;;;;;;;;;;;;19.54;36.43;101756.72;5138114;27;893;-45
2021/03/04 03:46:32;;;;;;;;;;;;;;;20.52;34.30;101763.28;5137760;27;739;-45
2021/03/04 03:49:07;;;;;;;;;;;;;;;20.25;34.66;101747.78;5138376;27;1038;-46
2021/03/04 03:51:32;;;;;;;;;;;;;;;20.12;34.97;101746.41;5136942;27;787;-45
2021/03/04 03:53:58;;;;;;;;;;;;;;;19.62;36.02;101740.47;5136316;27;972;-45
2021/03/04 03:56:24;;;;;;;;;;;;;;;19.40;36.55;101745.34;5137997;27;787;-44
2021/03/04 03:58:49;;;;;;;;;;;;;;;20.37;34.65;101739.25;5136528;27;1971;-45
2021/03/04 04:01:14;;;;;;;;;;;;;;;20.26;34.54;101748.63;5136669;27;795;-45
2021/03/04 04:03:40;;;;;;;;;;;;;;;20.09;34.94;101737.84;5137925;27;767;-45
2021/03/04 04:06:06;;;;;;;;;;;;;;;19.74;35.80;101733.88;5137737;27;759;-45
2021/03/04 04:08:32;;;;;;;;;;;;;;;19.18;36.88;101738.09;5136378;27;819;-45
2021/03/04 04:10:57;;;;;;;;;;;;;;;20.07;35.27;101746.38;5137368;27;969;-45
2021/03/04 04:13:23;;;;;;;;;;;;;;;20.46;34.22;101747.81;5137602;27;815;-57
2021/03/04 04:15:49;;;;;;;;;;;;;;;20.17;34.69;101749.19;5136278;27;806;-45
2021/03/04 04:18:14;;;;;;;;;;;;;;;19.75;35.52;101741.88;5121426;27;1914;-46
2021/03/04 04:20:40;;;;;;;;;;;;;;;19.31;36.59;101740.34;5117002;28;823;-46
2021/03/04 04:23:05;;;;;;;;;;;;;;;20.10;34.98;101740.31;5115658;28;870;-46
2021/03/04 04:25:30;;;;;;;;;;;;;;;20.76;33.58;101735.09;5129195;27;981;-47
2021/03/04 04:27:56;;;;;;;;;;;;;;;21.17;32.92;101735.03;5137662;27;771;-43
2021/03/04 04:30:24;;;;;;;;;;;;;;;20.66;33.89;101730.38;5137866;27;839;-46
2021/03/04 04:32:50;;;;;;;;;;;;;;;20.46;34.13;101732.06;5137269;28;767;-44
2021/03/04 04:35:15;;;;;;;;;;;;;;;19.86;35.17;101723.44;5137573;27;890;-45
2021/03/04 04:37:41;;;;;;;;;;;;;;;19.20;36.34;101715.75;5136957;28;1913;-56
2021/03/04 04:40:06;;;;;;;;;;;;;;;19.90;35.54;101709.94;5137354;28;949;-58
2021/03/04 04:42:32;;;;;;;;;;;;;;;20.55;34.07;101710.22;5137356;28;784;-46
2021/03/04 04:44:57;;;;;;;;;;;;;;;20.21;34.79;101712.72;5137142;28;806;-46
2021/03/04 04:47:23;;;;;;;;;;;;;;;20.04;35.00;101705.53;5137160;28;762;-44
2021/03/04 04:49:49;;;;;;;;;;;;;;;19.48;36.28;101706.22;5137377;27;1113;-44
2021/03/04 04:52:15;;;;;;;;;;;;;;;19.95;35.32;101698.88;5137018;27;790;-45
2021/03/04 04:54:40;;;;;;;;;;;;;;;20.68;33.90;101704.16;5136902;28;968;-43
2021/03/04 04:57:07;;;;;;;;;;;;;;;20.28;34.47;101696.72;5135884;28;1984;-52
2021/03/04 04:59:32;;;;;;;;;;;;;;;20.32;34.67;101703.34;5121995;28;874;-44
2021/03/04 05:01:58;;;;;;;;;;;;;;;19.75;35.48;101699.66;5117447;28;758;-47
2021/03/04 05:04:23;;;;;;;;;;;;;;;18.96;37.22;101694.94;5137748;27;770;-45
2021/03/04 05:06:49;;;;;;;;;;;;;;;19.99;35.17;101700.00;5139860;27;878;-50
2021/03/04 05:09:14;;;;;;;;;;;;;;;20.62;33.73;101702.50;5121850;27;893;-55
2021/03/04 05:11:40;;;;;;;;;;;;;;;20.12;34.40;101701.41;5120596;28;851;-47
2021/03/04 05:14:05;;;;;;;;;;;;;;;20.14;34.26;101688.97;5120413;28;803;-46
2021/03/04 05:16:31;;;;;;;;;;;;;;;19.48;35.84;101684.13;5120499;28;1647;-49
2021/03/04 05:18:56;;;;;;;;;;;;;;;19.49;35.98;101675.59;5120718;28;1905;-48
2021/03/04 05:21:21;;;;;;;;;;;;;;;20.39;34.03;101681.78;5128562;27;754;-46
2021/03/04 05:23:47;;;;;;;;;;;;;;;20.37;33.95;101685.91;5140645;27;751;-45
2021/03/04 05:26:12;;;;;;;;;;;;;;;20.24;34.25;101684.56;5121226;27;952;-48
2021/03/04 05:28:38;;;;;;;;;;;;;;;19.81;35.30;101687.53;5120277;28;746;-50
2021/03/04 05:31:03;;;;;;;;;;;;;;;19.48;36.00;101678.63;5120092;28;818;-56
2021/03/04 05:33:29;;;;;;;;;;;;;;;19.93;35.24;101690.06;5120210;28;786;-49
2021/03/04 05:35:54;;;;;;;;;;;;;;;20.70;33.46;101687.28;5120173;28;747;-53
2021/03/04 05:38:19;;;;;;;;;;;;;;;20.22;34.23;101697.81;5119700;28;1906;-50
2021/03/04 05:40:45;;;;;;;;;;;;;;;20.17;34.31;101690.34;5119582;28;1001;-56
2021/03/04 05:43:10;;;;;;;;;;;;;;;19.47;35.87;101688.84;5118885;28;826;-50
2021/03/04 05:45:36;;;;;;;;;;;;;;;19.21;36.44;101687.06;5119675;28;866;-48
2021/03/04 05:48:02;;;;;;;;;;;;;;;20.08;34.76;101692.84;5118627;28;814;-48
2021/03/04 05:50:27;;;;;;;;;;;;;;;20.62;33.58;101691.44;5119733;28;1157;-50
2021/03/04 05:53:02;;;;;;;;;;;;;;;20.20;34.50;101684.25;5118534;28;862;-49
2021/03/04 05:55:28;;;;;;;;;;;;;;;19.99;34.65;101681.53;5119627;28;1085;-49
2021/03/04 05:57:53;;;;;;;;;;;;;;;19.41;36.11;101676.13;5119683;28;1917;-49
2021/03/04 06:00:19;;;;;;;;;;;;;;;19.86;35.35;101683.97;5118155;28;815;-49
2021/03/04 06:02:45;;;;;;;;;;;;;;;20.61;33.70;101681.47;5119394;28;807;-56
2021/03/04 06:05:11;;;;;;;;;;;;;;;20.20;34.28;101677.94;5120038;28;790;-47
2021/03/04 06:07:37;;;;;;;;;;;;;;;20.08;34.74;101675.44;5117782;28;827;-46
2021/03/04 06:10:02;;;;;;;;;;;;;;;19.45;35.95;101677.22;5128952;27;980;-56
2021/03/04 06:12:29;;;;;;;;;;;;;;;19.72;35.58;101672.63;5140177;27;744;-51
2021/03/04 06:14:55;;;;;;;;;;;;;;;20.47;34.16;101667.41;5139646;27;1559;-55
2021/03/04 06:17:20;;;;;;;;;;;;;;;20.24;34.34;101668.81;5128391;27;1921;-53
2021/03/04 06:19:50;;;;;;;;;;;;;;;20.17;34.39;101655.28;5119696;28;771;-45
2021/03/04 06:22:23;;;;;;;;;;;;;;;19.64;35.54;101658.25;5118702;28;767;-56
2021/03/04 06:24:52;;;;;;;;;;;;;;;19.64;35.70;101649.13;5126712;27;964;-46
2021/03/04 06:27:23;;;;;;;;;;;;;;;20.40;34.00;101643.94;5139733;27;838;-51
2021/03/04 06:29:52;;;;;;;;;;;;;;;20.22;34.43;101642.59;5139229;27;874;-53
2021/03/04 06:32:22;;;;;;;;;;;;;;;20.12;34.40;101647.00;5139584;27;831;-47
2021/03/04 06:34:48;;;;;;;;;;;;;;;19.54;35.72;101646.38;5139696;27;751;-57
2021/03/04 06:37:13;;;;;;;;;;;;;;;19.38;35.93;101651.84;5139239;27;1913;-50
2021/03/04 06:39:42;;;;;;;;;;;;;;;20.24;34.57;101649.47;5139268;27;1012;-55
2021/03/04 06:42:08;;;;;;;;;;;;;;;20.13;34.49;101651.44;5139671;27;854;-56
2021/03/04 06:44:39;;;;;;;;;;;;;;;20.09;34.34;101653.09;5138917;27;882;-59
2021/03/04 06:47:05;;;;;;;;;;;;;;;19.70;35.35;101652.72;5139386;27;739;-48
2021/03/04 06:49:40;;;;;;;;;;;;;;;19.22;36.21;101641.84;5139234;27;1042;-56
2021/03/04 06:52:05;;;;;;;;;;;;;;;20.02;34.91;101644.25;5138771;27;766;-52
2021/03/04 06:54:31;;;;;;;;;;;;;;;20.57;33.61;101643.66;5139270;27;1067;-56
2021/03/04 06:57:07;;;;;;;;;;;;;;;20.08;34.45;101648.66;5139750;27;786;-48
2021/03/04 06:59:42;;;;;;;;;;;;;;;20.11;34.50;101645.34;5138730;27;774;-53
2021/03/04 07:02:07;;;;;;;;;;;;;;;19.26;35.95;101632.75;5139073;27;793;-58
2021/03/04 07:04:33;;;;;;;;;;;;;;;20.16;34.78;101633.47;5139191;27;818;-44
2021/03/04 07:06:58;;;;;;;;;;;;;;;20.55;33.94;101632.03;5138638;27;711;-46
2021/03/04 07:09:24;;;;;;;;;;;;;;;20.25;34.38;101628.22;5137476;27;1470;-49
2021/03/04 07:11:49;;;;;;;;;;;;;;;19.95;34.67;101624.34;5137450;27;831;-44
2021/03/04 07:14:15;;;;;;;;;;;;;;;19.48;35.90;101621.50;5136933;27;903;-46
2021/03/04 07:16:43;;;;;;;;;;;;;;;19.48;36.00;101616.00;5134808;27;1679;-45
2021/03/04 07:19:10;;;;;;;;;;;;;;;20.36;34.02;101616.06;5117910;28;1972;-46
2021/03/04 07:21:39;;;;;;;;;;;;;;;20.31;34.41;101614.13;5117807;28;802;-46
2021/03/04 07:24:04;;;;;;;;;;;;;;;20.15;34.57;101610.56;5120217;27;945;-48
2021/03/04 07:26:30;;;;;;;;;;;;;;;19.73;35.32;101600.59;5132728;27;834;-55
2021/03/04 07:28:56;;;;;;;;;;;;;;;19.36;35.90;101606.31;5117347;28;767;-45
2021/03/04 07:31:21;;;;;;;;;;;;;;;19.73;35.68;101608.06;5117899;28;815;-45
2021/03/04 07:33:47;;;;;;;;;;;;;;;20.49;33.95;101598.88;5118044;28;762;-44
2021/03/04 07:36:13;;;;;;;;;;;;;;;20.17;34.57;101596.47;5116419;28;766;-57
2021/03/04 07:38:39;;;;;;;;;;;;;;;20.11;34.65;101592.88;5117709;28;1905;-56
2021/03/04 07:41:07;;;;;;;;;;;;;;;19.56;35.77;101589.81;5135961;27;969;-49
2021/03/04 07:43:49;;;;;;;;;;;;;;;19.62;35.80;101599.75;5137958;27;751;-44
2021/03/04 07:46:27;;;;;;;;;;;;;;;20.55;33.99;101583.13;5138421;27;729;-48
2021/03/04 07:48:53;;;;;;;;;;;;;;;20.08;34.83;101576.88;5138126;27;1026;-45
2021/03/04 07:51:19;;;;;;;;;;;;;;;20.07;34.60;101572.44;5137751;27;858;-44
2021/03/04 07:53:47;;;;;;;;;;;;;;;19.40;35.92;101572.41;5136743;27;739;-44
2021/03/04 07:56:26;;;;;;;;;;;;;;;19.59;35.62;101569.13;5137931;27;949;-43
2021/03/04 07:58:51;;;;;;;;;;;;;;;20.44;33.99;101563.00;5137604;27;1913;-44
2021/03/04 08:01:17;;;;;;;;;;;;;;;20.13;34.62;101556.72;5137705;27;771;-45
2021/03/04 08:03:43;;;;;;;;;;;;;;;20.18;34.55;101548.41;5137984;27;862;-46
2021/03/04 08:06:09;;;;;;;;;;;;;;;19.60;35.78;101548.69;5137466;27;786;-44
2021/03/04 08:08:37;;;;;;;;;;;;;;;19.45;36.13;101542.06;5137992;27;796;-46
2021/03/04 08:11:03;;;;;;;;;;;;;;;20.37;34.06;101540.38;5137508;27;1008;-45
2021/03/04 08:13:29;;;;;;;;;;;;;;;20.15;34.57;101536.00;5136209;27;783;-45
2021/03/04 08:15:54;;;;;;;;;;;;;;;20.13;34.78;101532.69;5136074;27;890;-46
2021/03/04 08:18:21;;;;;;;;;;;;;;;19.81;35.27;101522.81;5119101;27;1986;-47
2021/03/04 08:20:46;;;;;;;;;;;;;;;19.26;36.40;101513.38;5116670;28;791;-46
2021/03/04 08:23:12;;;;;;;;;;;;;;;19.83;35.32;101506.78;5115825;28;739;-47
2021/03/04 08:25:37;;;;;;;;;;;;;;;20.56;34.02;101493.59;5131607;27;1020;-46
2021/03/04 08:28:04;;;;;;;;;;;;;;;20.26;34.45;101502.81;5137265;27;814;-45
2021/03/04 08:30:29;;;;;;;;;;;;;;;20.14;34.49;101505.91;5137590;27;835;-44
2021/03/04 08:32:55;;;;;;;;;;;;;;;19.53;35.70;101504.00;5122318;27;881;-43
2021/03/04 08:35:21;;;;;;;;;;;;;;;19.52;36.00;101496.84;5116077;28;870;-61
2021/03/04 08:37:46;;;;;;;;;;;;;;;20.51;34.01;101490.88;5117278;28;1914;-48
2021/03/04 08:40:12;;;;;;;;;;;;;;;20.16;34.70;101489.88;5118764;28;1017;-52
2021/03/04 08:42:37;;;;;;;;;;;;;;;20.26;34.79;101489.84;5120566;28;931;-46
2021/03/04 08:45:03;;;;;;;;;;;;;;;19.79;35.19;101475.31;5121263;28;735;-50
2021/03/04 08:47:29;;;;;;;;;;;;;;;19.35;36.26;101475.03;5121502;28;747;-43
2021/03/04 08:49:57;;;;;;;;;;;;;;;20.03;35.11;101473.91;5120390;28;1189;-44
2021/03/04 08:52:24;;;;;;;;;;;;;;;20.59;33.95;101475.63;5120992;28;818;-44
2021/03/04 08:54:50;;;;;;;;;;;;;;;20.26;34.66;101465.00;5119458;28;1033;-47
2021/03/04 08:57:20;;;;;;;;;;;;;;;20.20;34.58;101470.81;5120356;27;1906;-45
2021/03/04 08:59:45;;;;;;;;;;;;;;;19.35;36.25;101470.38;5121031;28;767;-51
2021/03/04 09:02:14;;;;;;;;;;;;;;;19.64;35.90;101456.84;5121261;28;854;-43
2021/03/04 09:04:39;;;;;;;;;;;;;;;20.68;33.80;101462.91;5120454;28;891;-44
2021/03/04 09:07:05;;;;;;;;;;;;;;;20.35;34.34;101448.66;5121356;28;797;-42
2021/03/04 09:09:30;;;;;;;;;;;;;;;20.32;34.55;101458.34;5120593;28;965;-43
2021/03/04 09:11:57;;;;;;;;;;;;;;;19.58;35.99;101457.13;5120102;28;826;-44
2021/03/04 09:14:29;;;;;;;;;;;;;;;19.39;36.56;101449.41;5120713;28;834;-46
2021/03/04 09:16:54;;;;;;;;;;;;;;;20.35;34.41;101443.13;5120364;28;1589;-47
2021/03/04 09:19:27;;;;;;;;;;;;;;;20.28;34.40;101443.44;5120125;28;1980;-58
2021/03/04 09:21:52;;;;;;;;;;;;;;;20.22;34.78;101435.47;5120491;28;789;-48
2021/03/04 09:24:18;;;;;;;;;;;;;;;19.62;35.79;101425.94;5119916;28;953;-45
2021/03/04 09:26:43;;;;;;;;;;;;;;;19.18;36.57;101429.28;5120131;28;743;-44
2021/03/04 09:29:09;;;;;;;;;;;;;;;20.25;34.75;101424.69;5120780;27;743;-47
2021/03/04 09:31:34;;;;;;;;;;;;;;;20.65;33.85;101421.97;5120020;27;735;-43
2021/03/04 09:34:02;;;;;;;;;;;;;;;20.18;34.77;101416.69;5118807;28;838;-42
2021/03/04 09:36:27;;;;;;;;;;;;;;;20.06;35.06;101410.66;5120135;28;782;-48
2021/03/04 09:38:53;;;;;;;;;;;;;;;19.30;36.54;101409.69;5119988;28;1981;-43
2021/03/04 09:41:19;;;;;;;;;;;;;;;19.89;35.50;101402.72;5119416;28;1265;-44
2021/03/04 09:43:45;;;;;;;;;;;;;;;20.63;33.93;101393.81;5120098;28;743;-45
2021/03/04 09:46:11;;;;;;;;;;;;;;;20.22;34.75;101394.06;5119990;28;743;-48
2021/03/04 09:48:39;;;;;;;;;;;;;;;20.12;34.74;101383.88;5119665;28;850;-45
2021/03/04 09:51:04;;;;;;;;;;;;;;;19.33;36.27;101378.81;5119395;28;1050;-47
2021/03/04 09:53:30;;;;;;;;;;;;;;;19.77;35.47;101380.13;5120129;28;767;-46
2021/03/04 09:55:55;;;;;;;;;;;;;;;20.66;34.00;101371.97;5119244;28;1013;-46
2021/03/04 09:58:24;;;;;;;;;;;;;;;20.20;34.58;101386.03;5118124;28;1914;-45
2021/03/04 10:00:59;;;;;;;;;;;;;;;20.21;34.95;101373.06;5119528;28;779;-51
2021/03/04 10:03:38;;;;;;;;;;;;;;;19.33;36.48;101370.53;5119196;28;838;-46
2021/03/04 10:06:05;;;;;;;;;;;;;;;19.97;35.42;101365.44;5119362;28;731;-47
2021/03/04 10:08:40;;;;;;;;;;;;;;;20.67;33.96;101361.75;5119979;28;834;-45
2021/03/04 10:11:05;;;;;;;;;;;;;;;20.20;34.82;101363.94;5117134;28;1105;-45
2021/03/04 10:13:31;;;;;;;;;;;;;;;20.14;34.60;101343.81;5119331;28;751;-46
2021/03/04 10:15:56;;;;;;;;;;;;;;;19.24;36.51;101361.19;5119698;28;763;-44
2021/03/04 10:18:22;;;;;;;;;;;;;;;20.07;35.14;101345.25;5118946;28;1910;-45
2021/03/04 10:20:48;;;;;;;;;;;;;;;20.71;33.70;101335.22;5118930;28;790;-44
2021/03/04 10:23:13;;;;;;;;;;;;;;;20.22;34.63;101333.31;5119150;28;828;-43
2021/03/04 10:25:39;;;;;;;;;;;;;;;20.14;34.67;101330.00;5118458;28;949;-55
2021/03/04 10:28:05;;;;;;;;;;;;;;;19.36;36.54;101325.03;5118851;28;782;-45
2021/03/04 10:30:30;;;;;;;;;;;;;;;19.99;35.18;101314.38;5118986;28;771;-46
2021/03/04 10:32:56;;;;;;;;;;;;;;;20.67;33.78;101314.75;5118676;28;810;-44
2021/03/04 10:35:22;;;;;;;;;;;;;;;20.29;34.58;101306.19;5118684;28;889;-45
2021/03/04 10:37:47;;;;;;;;;;;;;;;20.15;34.72;101290.25;5118911;28;1913;-45
2021/03/04 10:40:13;;;;;;;;;;;;;;;19.33;36.61;101290.56;5118459;28;973;-56
2021/03/04 10:42:39;;;;;;;;;;;;;;;19.78;35.79;101274.13;5109602;27;1416;-46
2021/03/04 10:45:05;;;;;;;;;;;;;;;20.73;33.87;101274.13;5118734;28;774;-51
2021/03/04 10:47:31;;;;;;;;;;;;;;;21.19;33.11;101271.72;5118793;28;1070;-56
2021/03/04 10:49:56;;;;;;;;;;;;;;;20.74;33.79;101262.78;5117982;28;1013;-45
2021/03/04 10:52:22;;;;;;;;;;;;;;;20.65;33.97;101262.56;5118936;28;767;-44
2021/03/04 10:54:48;;;;;;;;;;;;;;;19.87;35.40;101260.63;5118574;28;802;-57
2021/03/04 10:57:13;;;;;;;;;;;;;;;19.32;36.84;101255.81;5118186;28;1981;-50
2021/03/04 10:59:39;;;;;;;;;;;;;;;19.54;36.25;101244.44;5118565;28;1122;-49
2021/03/04 11:02:04;;;;;;;;;;;;;;;19.52;36.33;101237.56;5117778;28;778;-43
2021/03/04 11:04:30;;;;;;;;;;;;;;;19.52;36.38;101227.38;5117927;28;775;-44
2021/03/04 11:06:55;;;;;;;;;;;;;;;19.83;35.84;101228.06;5118494;28;802;-47
2021/03/04 11:09:20;;;;;;;;;;;;;;;19.94;35.40;101215.03;5118216;28;802;-46
2021/03/04 11:11:46;;;;;;;;;;;;;;;19.92;35.65;101213.66;5128008;27;1013;-47
2021/03/04 11:14:11;;;;;;;;;;;;;;;19.98;35.56;101207.00;5138744;27;802;-56
2021/03/04 11:16:37;;;;;;;;;;;;;;;20.05;35.42;101192.88;5136269;27;1659;-49
2021/03/04 11:19:03;;;;;;;;;;;;;;;20.06;35.21;101192.56;5117748;28;1910;-49
2021/03/04 11:21:29;;;;;;;;;;;;;;;20.10;35.13;101188.13;5117902;28;842;-46
2021/03/04 11:23:54;;;;;;;;;;;;;;;20.14;34.93;101177.34;5118008;28;739;-47
2021/03/04 11:26:20;;;;;;;;;;;;;;;20.21;35.06;101171.50;5124050;27;1012;-44
2021/03/04 11:28:45;;;;;;;;;;;;;;;20.13;35.31;101157.19;5138683;27;870;-45
2021/03/04 11:31:11;;;;;;;;;;;;;;;20.34;34.70;101165.28;5138264;27;834;-48
2021/03/04 11:33:36;;;;;;;;;;;;;;;20.29;34.96;101154.31;5138054;27;786;-52
2021/03/04 11:36:02;;;;;;;;;;;;;;;20.33;34.96;101158.16;5131576;27;1140;-45
2021/03/04 11:38:27;;;;;;;;;;;;;;;20.38;34.68;101148.97;5117902;28;1974;-45
2021/03/04 11:40:53;;;;;;;;;;;;;;;20.37;34.96;101142.66;5116861;28;973;-48
2021/03/04 11:43:18;;;;;;;;;;;;;;;20.35;34.74;101144.84;5117612;28;870;-46
2021/03/04 11:45:44;;;;;;;;;;;;;;;20.34;35.12;101137.69;5117799;27;1477;-45
2021/03/04 11:48:09;;;;;;;;;;;;;;;20.38;34.79;101132.41;5118053;28;767;-58
2021/03/04 11:50:34;;;;;;;;;;;;;;;20.39;35.04;101128.53;5133533;27;1125;-45
2021/03/04 11:53:00;;;;;;;;;;;;;;;20.48;34.65;101119.34;5129127;27;1513;-45
2021/03/04 11:55:26;;;;;;;;;;;;;;;20.42;34.92;101112.19;5123589;27;810;-48
2021/03/04 11:57:51;;;;;;;;;;;;;;;20.49;34.54;101106.31;5117123;28;1901;-43
2021/03/04 12:00:17;;;;;;;;;;;;;;;20.48;34.65;101108.28;5117267;28;756;-44
2021/03/04 12:02:42;;;;;;;;;;;;;;;20.42;34.70;101101.13;5117058;28;759;-46
2021/03/04 12:05:08;;;;;;;;;;;;;;;20.30;35.36;101100.72;5110816;27;1218;-52
2021/03/04 12:07:33;;;;;;;;;;;;;;;20.27;35.11;101095.78;5115912;28;1118;-58
2021/03/04 12:09:59;;;;;;;;;;;;;;;20.47;34.74;101101.09;5116539;28;754;-46
2021/03/04 12:12:24;;;;;;;;;;;;;;;20.52;34.89;101101.06;5116462;28;985;-50
2021/03/04 12:14:50;;;;;;;;;;;;;;;20.47;35.01;101092.81;5116897;28;759;-46
2021/03/04 12:17:15;;;;;;;;;;;;;;;20.53;34.65;101088.06;5116259;28;1976;-45
2021/03/04 12:19:41;;;;;;;;;;;;;;;20.47;34.81;101081.75;5116601;28;795;-44
2021/03/04 12:22:06;;;;;;;;;;;;;;;20.58;34.60;101073.34;5117000;28;855;-44
2021/03/04 12:24:32;;;;;;;;;;;;;;;20.51;34.77;101065.44;5116493;28;818;-65
2021/03/04 12:26:57;;;;;;;;;;;;;;;20.51;34.83;101066.25;5126730;27;823;-44
2021/03/04 12:29:22;;;;;;;;;;;;;;;20.64;34.63;101058.38;5137407;27;754;-53
2021/03/04 12:31:48;;;;;;;;;;;;;;;20.52;34.88;101059.63;5136675;27;802;-44
2021/03/04 12:34:14;;;;;;;;;;;;;;;20.55;35.00;101060.13;5137249;27;832;-46
2021/03/04 12:36:39;;;;;;;;;;;;;;;20.65;34.55;101060.00;5125381;28;1208;-43
2021/03/04 12:39:05;;;;;;;;;;;;;;;20.63;34.77;101051.19;5116151;28;1909;-44
2021/03/04 12:41:30;;;;;;;;;;;;;;;20.73;34.53;101045.56;5116092;28;969;-60
2021/03/04 12:43:56;;;;;;;;;;;;;;;20.68;34.81;101042.91;5116270;28;963;-51
2021/03/04 12:46:22;;;;;;;;;;;;;;;20.69;34.62;101047.28;5116461;28;825;-46
2021/03/04 12:48:47;;;;;;;;;;;;;;;20.71;34.55;101052.53;5116302;28;831;-62
2021/03/04 12:51:13;;;;;;;;;;;;;;;20.65;34.75;101046.19;5116293;28;1168;-45